createdAt,value
2023-03-26T00:02:17.089Z,5.25
2023-03-26T00:04:46.637Z,6.65
2023-03-26T00:07:16.200Z,5.30
2023-03-26T00:09:47.004Z,5.70
2023-03-26T00:12:16.493Z,6.63
2023-03-26T00:17:14.574Z,5.77
2023-03-26T00:19:44.246Z,5.47
2023-03-26T00:22:14.356Z,6.03
2023-03-26T00:24:46.021Z,5.75
2023-03-26T00:27:16.479Z,4.75
2023-03-26T00:29:48.310Z,5.47
2023-03-26T00:32:17.962Z,5.47
2023-03-26T00:34:47.838Z,6.22
2023-03-26T00:37:16.869Z,5.65
2023-03-26T00:39:49.179Z,5.65
2023-03-26T00:42:20.082Z,5.75
2023-03-26T00:44:51.237Z,5.90
2023-03-26T00:47:20.418Z,5.55
2023-03-26T00:49:50.791Z,5.68
2023-03-26T00:52:20.126Z,6.38
2023-03-26T00:57:34.490Z,5.13
2023-03-26T01:00:16.580Z,5.15
2023-03-26T01:02:46.409Z,4.90
2023-03-26T01:05:58.710Z,5.18
2023-03-26T01:08:32.456Z,4.88
2023-03-26T01:11:14.248Z,5.18
2023-03-26T01:13:50.914Z,4.63
2023-03-26T01:16:27.310Z,4.35
2023-03-26T01:18:58.812Z,4.40
2023-03-26T01:21:30.547Z,4.72
2023-03-26T01:24:02.714Z,4.85
2023-03-26T01:26:57.395Z,4.63
2023-03-26T01:29:34.669Z,5.20
2023-03-26T01:32:21.955Z,3.92
2023-03-26T01:35:07.234Z,4.78
2023-03-26T01:37:46.879Z,4.53
2023-03-26T01:40:26.504Z,4.45
2023-03-26T01:43:05.087Z,3.90
2023-03-26T01:45:37.876Z,5.55
2023-03-26T01:48:08.296Z,4.53
2023-03-26T01:50:37.550Z,4.65
2023-03-26T01:53:08.970Z,5.00
2023-03-26T01:55:49.824Z,4.28
2023-03-26T01:58:27.970Z,5.18
2023-03-26T02:01:07.391Z,4.55
2023-03-26T02:03:43.171Z,4.85
2023-03-26T02:06:17.693Z,4.32
2023-03-26T02:08:53.977Z,4.88
2023-03-26T02:11:34.640Z,6.78
2023-03-26T02:14:06.515Z,4.93
2023-03-26T02:16:36.166Z,5.70
2023-03-26T02:19:10.039Z,4.57
2023-03-26T02:21:39.413Z,5.13
2023-03-26T02:24:09.464Z,5.00
2023-03-26T02:26:40.878Z,4.60
2023-03-26T02:29:14.642Z,5.68
2023-03-26T02:31:47.386Z,4.25
2023-03-26T02:34:17.132Z,5.30
2023-03-26T02:36:54.734Z,5.65
2023-03-26T02:42:05.696Z,4.85
2023-03-26T02:44:41.317Z,5.03
2023-03-26T02:47:33.818Z,4.72
2023-03-26T02:50:22.117Z,5.10
2023-03-26T02:53:10.143Z,5.78
2023-03-26T02:55:42.901Z,5.85
2023-03-26T02:58:17.562Z,4.32
2023-03-26T03:00:47.360Z,5.55
2023-03-26T03:03:42.943Z,5.65
2023-03-26T03:06:41.786Z,3.97
2023-03-26T03:11:41.950Z,5.18
2023-03-26T03:14:13.732Z,4.50
2023-03-26T03:16:44.104Z,5.45
2023-03-26T03:19:14.503Z,5.90
2023-03-26T03:21:44.291Z,4.32
2023-03-26T03:24:14.039Z,5.00
2023-03-26T03:26:47.953Z,4.53
2023-03-26T03:29:36.616Z,5.03
2023-03-26T03:32:34.829Z,4.53
2023-03-26T03:35:07.702Z,4.95
2023-03-26T03:37:37.532Z,4.78
2023-03-26T03:40:11.086Z,5.32
2023-03-26T03:42:42.712Z,4.97
2023-03-26T03:45:15.555Z,5.38
2023-03-26T03:48:00.762Z,5.05
2023-03-26T03:50:38.432Z,4.30
2023-03-26T03:53:28.953Z,4.80
2023-03-26T03:56:02.270Z,5.05
2023-03-26T03:59:08.902Z,4.57
2023-03-26T04:01:43.386Z,5.03
2023-03-26T04:04:22.212Z,5.30
2023-03-26T04:09:54.273Z,5.43
2023-03-26T04:12:25.498Z,5.18
2023-03-26T04:15:05.958Z,5.25
2023-03-26T04:17:42.955Z,4.70
2023-03-26T04:20:15.976Z,5.65
2023-03-26T04:22:48.246Z,5.80
2023-03-26T04:25:19.674Z,6.05
2023-03-26T04:28:08.564Z,5.35
2023-03-26T04:31:00.753Z,5.07
2023-03-26T04:33:41.976Z,6.32
2023-03-26T04:36:12.658Z,5.30
2023-03-26T04:38:44.724Z,6.15
2023-03-26T04:41:16.847Z,5.15
2023-03-26T04:43:50.758Z,5.15
2023-03-26T04:46:43.713Z,5.00
2023-03-26T04:49:26.966Z,4.60
2023-03-26T04:51:56.836Z,5.63
2023-03-26T04:55:01.922Z,4.82
2023-03-26T04:57:38.880Z,5.53
2023-03-26T05:00:16.690Z,4.63
2023-03-26T05:02:50.860Z,5.55
2023-03-26T05:05:22.991Z,4.43
2023-03-26T05:07:53.371Z,5.57
2023-03-26T05:10:24.494Z,4.65
2023-03-26T05:12:59.503Z,4.65
2023-03-26T05:15:32.858Z,4.10
2023-03-26T05:18:20.925Z,4.27
2023-03-26T05:20:56.242Z,4.55
2023-03-26T05:23:26.167Z,4.25
2023-03-26T05:26:12.077Z,4.45
2023-03-26T05:28:41.602Z,4.75
2023-03-26T05:31:33.561Z,2.72
2023-03-26T05:34:04.822Z,2.17
2023-03-26T05:36:35.598Z,2.08
2023-03-26T05:39:26.241Z,2.00
2023-03-26T05:41:55.654Z,1.20
2023-03-26T05:44:31.901Z,1.83
2023-03-26T05:47:05.133Z,1.85
2023-03-26T05:52:05.132Z,1.58
2023-03-26T05:54:44.249Z,1.65
2023-03-26T05:57:39.349Z,1.55
2023-03-26T06:00:27.609Z,1.65
2023-03-26T06:02:58.973Z,1.60
2023-03-26T06:05:57.552Z,1.80
2023-03-26T06:09:01.623Z,1.73
2023-03-26T06:11:33.991Z,1.77
2023-03-26T06:14:05.721Z,1.70
2023-03-26T06:16:37.846Z,1.40
2023-03-26T06:19:22.680Z,1.20
2023-03-26T06:21:59.959Z,1.67
2023-03-26T06:24:36.745Z,1.40
2023-03-26T06:27:44.433Z,1.92
2023-03-26T06:30:46.827Z,1.92
2023-03-26T06:33:24.755Z,0.90
2023-03-26T06:35:54.506Z,1.60
2023-03-26T06:40:54.915Z,1.58
2023-03-26T06:43:42.482Z,1.13
2023-03-26T06:46:15.060Z,1.33
2023-03-26T06:49:03.188Z,1.15
2023-03-26T06:52:03.119Z,0.98
2023-03-26T06:54:51.775Z,1.23
2023-03-26T06:57:49.451Z,1.20
2023-03-26T07:00:42.381Z,1.52
2023-03-26T07:03:30.820Z,1.17
2023-03-26T07:06:18.843Z,1.02
2023-03-26T07:09:07.084Z,1.35
2023-03-26T07:11:55.507Z,1.02
2023-03-26T07:14:44.564Z,1.45
2023-03-26T07:17:46.919Z,1.13
2023-03-26T07:20:27.576Z,1.23
2023-03-26T07:22:57.967Z,1.58
2023-03-26T07:25:55.571Z,1.90
2023-03-26T07:29:03.709Z,1.45
2023-03-26T07:32:24.560Z,1.83
2023-03-26T07:35:20.399Z,1.40
2023-03-26T07:38:29.085Z,1.13
2023-03-26T07:41:27.386Z,1.75
2023-03-26T07:44:47.112Z,1.35
2023-03-26T07:47:28.966Z,2.17
2023-03-26T07:50:27.961Z,0.93
2023-03-26T07:53:27.029Z,0.90
2023-03-26T07:56:13.679Z,1.00
2023-03-26T07:59:22.882Z,1.65
2023-03-26T08:02:53.684Z,0.68
2023-03-26T08:05:50.496Z,0.90
2023-03-26T08:08:43.468Z,1.27
2023-03-26T08:11:41.762Z,0.60
2023-03-26T08:14:26.242Z,0.90
2023-03-26T08:16:59.862Z,0.95
2023-03-26T08:19:46.900Z,0.73
2023-03-26T08:22:26.385Z,0.80
2023-03-26T08:25:18.105Z,0.90
2023-03-26T08:27:58.157Z,0.57
2023-03-26T08:30:29.042Z,1.00
2023-03-26T08:33:01.776Z,1.15
2023-03-26T08:35:33.961Z,0.77
2023-03-26T08:38:04.694Z,0.98
2023-03-26T08:41:17.192Z,0.88
2023-03-26T08:44:16.447Z,1.10
2023-03-26T08:50:04.461Z,1.13
2023-03-26T08:53:09.850Z,0.80
2023-03-26T08:55:53.717Z,0.90
2023-03-26T08:58:58.548Z,0.75
2023-03-26T09:01:55.739Z,1.27
2023-03-26T09:04:56.882Z,0.80
2023-03-26T09:08:17.614Z,1.30
2023-03-26T09:11:27.858Z,1.27
2023-03-26T09:14:28.031Z,1.00
2023-03-26T09:17:28.892Z,0.88
2023-03-26T09:20:48.431Z,0.93
2023-03-26T09:23:49.781Z,0.85
2023-03-26T09:26:31.077Z,1.10
2023-03-26T09:29:45.188Z,1.02
2023-03-26T09:32:44.004Z,1.30
2023-03-26T09:35:32.507Z,1.77
2023-03-26T09:38:11.294Z,1.10
2023-03-26T09:40:53.298Z,0.82
2023-03-26T09:43:44.187Z,0.90
2023-03-26T09:46:28.732Z,1.20
2023-03-26T09:49:21.036Z,1.23
2023-03-26T09:52:14.470Z,1.45
2023-03-26T09:55:15.524Z,1.10
2023-03-26T09:58:02.490Z,0.70
2023-03-26T10:00:43.151Z,1.15
2023-03-26T10:03:30.729Z,1.27
2023-03-26T10:06:18.582Z,0.93
2023-03-26T10:08:59.294Z,1.10
2023-03-26T10:11:38.690Z,0.88
2023-03-26T10:14:20.260Z,1.48
2023-03-26T10:17:05.104Z,1.75
2023-03-26T10:19:54.906Z,1.75
2023-03-26T10:22:43.653Z,1.73
2023-03-26T10:25:34.871Z,2.53
2023-03-26T10:28:26.497Z,1.85
2023-03-26T10:31:18.116Z,2.13
2023-03-26T10:33:59.119Z,2.20
2023-03-26T10:36:35.830Z,1.38
2023-03-26T10:39:38.142Z,1.65
2023-03-26T10:42:26.825Z,1.92
2023-03-26T10:45:26.041Z,1.80
2023-03-26T10:48:23.426Z,1.55
2023-03-26T10:51:15.536Z,1.40
2023-03-26T10:53:50.452Z,1.25
2023-03-26T10:56:26.640Z,2.05
2023-03-26T10:58:58.024Z,2.72
2023-03-26T11:01:37.303Z,2.40
2023-03-26T11:04:19.308Z,1.95
2023-03-26T11:07:00.842Z,1.77
2023-03-26T11:09:41.952Z,1.35
2023-03-26T11:12:26.759Z,0.90
2023-03-26T11:15:16.322Z,1.63
2023-03-26T11:17:56.190Z,1.45
2023-03-26T11:20:37.310Z,0.87
2023-03-26T11:23:34.757Z,2.38
2023-03-26T11:26:13.185Z,1.67
2023-03-26T11:29:03.925Z,1.30
2023-03-26T11:32:02.060Z,0.88
2023-03-26T11:34:37.191Z,1.17
2023-03-26T11:37:15.438Z,1.23
2023-03-26T11:39:50.993Z,1.05
2023-03-26T11:42:24.572Z,1.52
2023-03-26T11:44:57.680Z,1.20
2023-03-26T11:47:38.401Z,1.17
2023-03-26T11:50:11.981Z,1.15
2023-03-26T11:52:42.294Z,1.63
2023-03-26T11:55:15.908Z,1.67
2023-03-26T11:57:56.447Z,1.30
2023-03-26T12:00:28.180Z,1.80
2023-03-26T12:03:01.700Z,2.05
2023-03-26T12:05:50.239Z,1.20
2023-03-26T12:08:29.954Z,1.48
2023-03-26T12:11:08.947Z,1.63
2023-03-26T12:13:44.272Z,1.60
2023-03-26T12:16:17.273Z,0.88
2023-03-26T12:18:58.244Z,1.42
2023-03-26T12:21:28.082Z,1.42
2023-03-26T12:24:03.529Z,1.85
2023-03-26T12:26:42.483Z,1.52
2023-03-26T12:29:14.332Z,1.27
2023-03-26T12:31:52.313Z,1.42
2023-03-26T12:34:23.807Z,0.80
2023-03-26T12:36:55.750Z,1.05
2023-03-26T12:40:08.734Z,0.93
2023-03-26T12:44:46.700Z,1.00
2023-03-26T12:45:30.400Z,0.98
2023-03-26T12:48:04.241Z,1.15
2023-03-26T12:50:53.079Z,2.17
2023-03-26T12:53:50.829Z,2.38
2023-03-26T12:56:36.589Z,1.30
2023-03-26T12:59:29.893Z,1.50
2023-03-26T13:02:13.792Z,1.88
2023-03-26T13:05:05.652Z,1.40
2023-03-26T13:08:14.894Z,1.73
2023-03-26T13:10:51.615Z,1.92
2023-03-26T13:13:39.365Z,2.30
2023-03-26T13:16:17.885Z,1.77
2023-03-26T13:18:54.517Z,1.10
2023-03-26T13:21:35.985Z,1.60
2023-03-26T13:24:22.480Z,1.63
2023-03-26T13:27:09.189Z,1.58
2023-03-26T13:29:48.005Z,1.33
2023-03-26T13:32:30.919Z,1.08
2023-03-26T13:35:16.299Z,2.00
2023-03-26T13:37:56.756Z,1.65
2023-03-26T13:40:36.678Z,1.58
2023-03-26T13:43:19.324Z,1.73
2023-03-26T13:45:58.355Z,1.30
2023-03-26T13:48:33.557Z,1.20
2023-03-26T13:51:11.153Z,1.20
2023-03-26T13:53:48.869Z,1.40
2023-03-26T13:56:21.850Z,1.58
2023-03-26T13:58:56.656Z,1.08
2023-03-26T14:01:35.151Z,1.10
2023-03-26T14:04:16.102Z,1.30
2023-03-26T14:06:54.263Z,1.77
2023-03-26T14:09:30.485Z,1.20
2023-03-26T14:12:22.150Z,1.35
2023-03-26T14:14:56.469Z,0.80
2023-03-26T14:17:31.382Z,1.20
2023-03-26T14:20:49.490Z,1.30
2023-03-26T14:23:40.589Z,1.20
2023-03-26T14:26:21.711Z,1.05
2023-03-26T14:29:11.567Z,1.25
2023-03-26T14:31:50.997Z,1.00
2023-03-26T14:34:45.339Z,1.45
2023-03-26T14:37:46.911Z,1.15
2023-03-26T14:40:53.131Z,0.95
2023-03-26T14:43:51.267Z,1.02
2023-03-26T14:46:38.881Z,1.33
2023-03-26T14:49:46.838Z,1.13
2023-03-26T14:52:23.740Z,1.88
2023-03-26T14:54:58.093Z,1.20
2023-03-26T14:58:04.034Z,1.10
2023-03-26T15:01:18.001Z,1.60
2023-03-26T15:04:38.770Z,1.30
2023-03-26T15:07:42.772Z,1.17
2023-03-26T15:10:49.997Z,1.00
2023-03-26T15:13:55.238Z,1.05
2023-03-26T15:16:54.681Z,0.80
2023-03-26T15:20:11.705Z,1.92
2023-03-26T15:23:33.122Z,1.15
2023-03-26T15:26:37.124Z,1.35
2023-03-26T15:29:35.652Z,1.10
2023-03-26T15:32:49.470Z,1.25
2023-03-26T15:35:41.331Z,1.40
2023-03-26T15:38:43.649Z,1.40
2023-03-26T15:41:28.494Z,0.90
2023-03-26T15:44:40.977Z,1.10
2023-03-26T15:47:38.313Z,1.20
2023-03-26T15:50:26.131Z,1.15
2023-03-26T15:53:07.270Z,1.13
2023-03-26T15:55:45.920Z,0.93
2023-03-26T15:58:28.059Z,1.60
2023-03-26T16:01:19.042Z,0.90
2023-03-26T16:03:59.856Z,1.95
2023-03-26T16:06:41.382Z,1.45
2023-03-26T16:09:39.121Z,2.17
2023-03-26T16:12:29.594Z,1.38
2023-03-26T16:15:32.619Z,1.42
2023-03-26T16:18:30.793Z,1.70
2023-03-26T16:21:41.198Z,1.77
2023-03-26T16:24:24.926Z,1.27
2023-03-26T16:27:24.632Z,2.58
2023-03-26T16:30:26.076Z,2.58
2023-03-26T16:32:59.541Z,2.38
2023-03-26T16:36:07.557Z,4.32
2023-03-26T16:38:55.622Z,3.85
2023-03-26T16:41:28.193Z,2.55
2023-03-26T16:44:22.617Z,3.08
2023-03-26T16:47:01.445Z,2.90
2023-03-26T16:49:45.952Z,2.47
2023-03-26T16:52:34.387Z,2.33
2023-03-26T16:55:15.611Z,3.00
2023-03-26T16:57:53.696Z,2.80
2023-03-26T17:00:32.655Z,2.17
2023-03-26T17:03:37.666Z,2.58
2023-03-26T17:06:21.095Z,3.70
2023-03-26T17:09:02.836Z,3.15
2023-03-26T17:11:47.038Z,3.30
2023-03-26T17:14:31.212Z,3.22
2023-03-26T17:17:23.352Z,3.10
2023-03-26T17:20:01.406Z,3.13
2023-03-26T17:22:50.745Z,2.30
2023-03-26T17:25:37.304Z,2.72
2023-03-26T17:28:29.828Z,2.95
2023-03-26T17:31:06.712Z,3.72
2023-03-26T17:36:41.625Z,4.07
2023-03-26T17:39:38.623Z,2.20
2023-03-26T17:42:27.105Z,3.88
2023-03-26T17:44:59.507Z,3.65
2023-03-26T17:47:36.186Z,3.65
2023-03-26T17:50:18.905Z,2.67
2023-03-26T17:52:57.725Z,4.18
2023-03-26T17:55:32.392Z,3.70
2023-03-26T17:58:08.206Z,4.18
2023-03-26T18:00:48.026Z,2.83
2023-03-26T18:03:49.544Z,3.22
2023-03-26T18:06:46.266Z,4.55
2023-03-26T18:09:33.075Z,2.55
2023-03-26T18:12:30.135Z,3.72
2023-03-26T18:15:25.626Z,2.65
2023-03-26T18:18:11.143Z,2.60
2023-03-26T18:21:08.167Z,3.63
2023-03-26T18:23:45.261Z,4.38
2023-03-26T18:26:21.683Z,4.00
2023-03-26T18:29:13.040Z,3.03
2023-03-26T18:31:47.337Z,3.75
2023-03-26T18:34:21.450Z,3.47
2023-03-26T18:37:11.039Z,2.95
2023-03-26T18:39:45.030Z,3.72
2023-03-26T18:42:23.324Z,2.90
2023-03-26T18:44:59.858Z,3.85
2023-03-26T18:47:38.497Z,3.40
2023-03-26T18:50:21.266Z,3.97
2023-03-26T18:52:53.414Z,2.92
2023-03-26T18:55:29.483Z,5.10
2023-03-26T18:58:23.721Z,3.75
2023-03-26T19:01:04.200Z,4.03
2023-03-26T19:03:40.895Z,3.58
2023-03-26T19:06:17.370Z,2.70
2023-03-26T19:08:48.606Z,4.18
2023-03-26T19:11:24.393Z,2.95
2023-03-26T19:14:16.904Z,5.25
2023-03-26T19:16:58.625Z,3.70
2023-03-26T19:19:36.873Z,4.03
2023-03-26T19:22:13.830Z,3.60
2023-03-26T19:24:46.783Z,4.47
2023-03-26T19:27:22.070Z,4.35
2023-03-26T19:29:54.259Z,4.53
2023-03-26T19:32:32.891Z,3.75
2023-03-26T19:35:21.245Z,4.47
2023-03-26T19:37:54.353Z,3.35
2023-03-26T19:40:30.151Z,4.55
2023-03-26T19:43:04.525Z,4.00
2023-03-26T19:45:38.715Z,3.80
2023-03-26T19:48:45.506Z,4.00
2023-03-26T19:51:32.312Z,3.50
2023-03-26T19:54:14.562Z,3.65
2023-03-26T19:56:44.505Z,4.38
2023-03-26T20:01:45.808Z,4.43
2023-03-26T20:04:16.918Z,5.65
2023-03-26T20:06:52.794Z,4.65
2023-03-26T20:09:25.581Z,4.25
2023-03-26T20:11:57.418Z,4.35
2023-03-26T20:14:27.837Z,5.10
2023-03-26T20:16:57.797Z,4.80
2023-03-26T20:19:33.867Z,4.97
2023-03-26T20:22:07.997Z,5.20
2023-03-26T20:24:41.740Z,6.07
2023-03-26T20:27:14.253Z,5.63
2023-03-26T20:29:46.812Z,5.82
2023-03-26T20:32:26.482Z,6.45
2023-03-26T20:34:57.778Z,7.68
2023-03-26T20:37:31.537Z,6.30
2023-03-26T20:40:01.918Z,5.85
2023-03-26T20:42:56.852Z,5.97
2023-03-26T20:47:55.822Z,5.00
2023-03-26T20:50:28.873Z,5.10
2023-03-26T20:53:02.476Z,6.50
2023-03-26T20:55:32.188Z,5.97
2023-03-26T20:58:01.312Z,7.10
2023-03-26T21:00:32.651Z,8.40
2023-03-26T21:03:02.223Z,6.45
2023-03-26T21:05:32.334Z,5.55
2023-03-26T21:10:35.811Z,4.75
2023-03-26T21:13:09.656Z,5.15
2023-03-26T21:15:39.758Z,4.72
2023-03-26T21:18:09.734Z,4.32
2023-03-26T21:20:40.887Z,4.75
2023-03-26T21:23:21.005Z,5.57
2023-03-26T21:26:01.570Z,5.13
2023-03-26T21:28:42.025Z,7.10
2023-03-26T21:31:18.544Z,6.13
2023-03-26T21:33:49.844Z,7.18
2023-03-26T21:36:21.058Z,7.03
2023-03-26T21:38:54.710Z,5.32
2023-03-26T21:41:36.198Z,5.50
2023-03-26T21:44:05.534Z,6.32
2023-03-26T21:46:35.569Z,5.85
2023-03-26T21:51:34.849Z,4.30
2023-03-26T21:54:07.056Z,5.10
2023-03-26T21:56:49.944Z,5.03
2023-03-26T21:59:27.625Z,6.30
2023-03-26T22:02:03.386Z,6.72
2023-03-26T22:04:40.367Z,6.18
2023-03-26T22:07:14.763Z,6.60
2023-03-26T22:09:46.344Z,5.70
2023-03-26T22:12:16.863Z,5.28
2023-03-26T22:14:46.213Z,6.93
2023-03-26T22:17:15.513Z,5.85
2023-03-26T22:19:44.666Z,6.10
2023-03-26T22:22:14.946Z,5.45
2023-03-26T22:24:45.479Z,3.95
2023-03-26T22:27:16.117Z,4.13
2023-03-26T22:29:45.466Z,4.68
2023-03-26T22:32:15.033Z,3.45
2023-03-26T22:34:45.006Z,2.50
2023-03-26T22:37:14.531Z,3.25
2023-03-26T22:39:45.827Z,3.00
2023-03-26T22:42:15.959Z,2.85
2023-03-26T22:47:16.672Z,2.33
2023-03-26T22:49:46.571Z,2.08
2023-03-26T22:52:16.059Z,2.80
2023-03-26T22:54:46.471Z,2.03
2023-03-26T22:57:16.087Z,1.95
2023-03-26T22:59:45.294Z,3.08
2023-03-26T23:02:16.582Z,2.38
2023-03-26T23:04:46.327Z,2.30
2023-03-26T23:09:46.034Z,1.80
2023-03-26T23:12:15.701Z,1.70
2023-03-26T23:14:44.777Z,2.38
2023-03-26T23:17:14.758Z,1.92
2023-03-26T23:19:44.615Z,2.15
2023-03-26T23:22:14.224Z,2.45
2023-03-26T23:24:43.574Z,2.33
2023-03-26T23:27:14.415Z,2.40
2023-03-26T23:29:45.877Z,2.47
2023-03-26T23:32:24.483Z,2.38
2023-03-26T23:34:55.793Z,2.28
2023-03-26T23:37:25.339Z,1.60
2023-03-26T23:39:54.500Z,2.40
2023-03-26T23:42:29.122Z,2.22
2023-03-26T23:44:58.964Z,2.30
2023-03-26T23:47:34.553Z,2.45
2023-03-26T23:50:05.667Z,2.30
2023-03-26T23:52:35.074Z,1.88
2023-03-26T23:55:04.269Z,1.80
2023-03-26T23:57:37.196Z,2.10
